Aérodrome :
LOGIN :

S'inscrire | Disclaimer

   EN    FR    IT 

 










Légende :    VFR   VFR Marginal   IFR   IFR Intensif   IFR Très Intensif
Visi : 
Plafond : 
>= 8 km
>= 3000ft
5 à 8 km
1000 à 3000 ft
1500m à 5 km
500 à 1000 ft
800 à 1500m
200 à 500 ft
< 800m
< 200 ft
Symboles :   Orages  Brouillard  Fortes neiges  Fortes précipitations  Vent > 20 kt
SIGMETs :   Divers  Orages  Givrage  Turbulence  Onde Orograph.  Cendres Volcan.






- Altitude de l'aérodrome : 1058 ft
- Code IATA : SCN


EDDR - Saarbrücken

DERNIER METAR :
  • 141250Z AUTO 21011KT 170V230 9999 BKN014 BKN019 OVC032 15/14 Q1011 NOSIG

METARs EXPIRÉS :
  • 141220Z AUTO 21011KT 170V240 9999 BKN010 BKN016 BKN022 16/13 Q1011 NOSIG
  • 141150Z AUTO 21011KT 9999 BKN007 OVC011 15/13 Q1011 TEMPO SCT007
  • 141120Z AUTO 21011KT 180V240 9000 -DZ BKN006 OVC010 14/13 Q1011 REDZ NOSIG
  • 141050Z AUTO 21013KT 9999 -DZ BKN006 OVC011 14/13 Q1011 BECMG SCT010 BKN020
  • 141020Z AUTO 21013KT 9999 -DZ BKN007 OVC011 13/12 Q1011 BECMG SCT010 BKN020
  • 140950Z AUTO 21011KT 180V240 9999 -DZ BKN006 13/12 Q1011 REDZ
  • 140920Z AUTO 20009KT 2800 DZ BR BKN006 OVC009 12/11 Q1012 TEMPO 8000 NSW SCT010 BKN020
  • 140850Z AUTO 19009KT 160V220 9999 -RA BKN008 OVC013 12/11 Q1012 TEMPO SCT010 BKN020
  • 140820Z AUTO 20007KT 170V230 9999 -DZ FEW006 BKN016 12/11 Q1012 TEMPO BKN008
  • 140750Z AUTO 19008KT 160V230 7000 -DZ SCT006 BKN009 BKN017 12/10 Q1012 NOSIG

TAF TAF EDDR
Valide du 14 à 12h jusqu'au 15 à 12h UTC


141100Z 1412/1512 20012G22KT 9999 SCT010 BKN020
TEMPO 1412/1414 4000 -DZ BKN006 OVC012
BECMG 1419/1421 20007KT
BECMG 1423/1501 22012KT
TEMPO 1423/1505 2000 SHRA BKN005TCU
TEMPO 1504/1512 25015G25KT
PROB30
TEMPO 1508/1512 24020G30KT



MET'MAP, la Météo Aéronautique d'un coup d'oeil ! - Copyright ORBIFLY Décembre 2007 - Disclaimer

ORBIFLY MET'MAP TEAM :

Programmation & Développement : Alexandra Zaïnal
Sur une idée originale de : Baudouin d'Aumeries
Soutien technique & logistique : Manuel Goepfert
Assistance : Marc-Olivier Méhu




SOURCES & CREDITS :

   NOAA